createdAt,value
2019-02-07T00:01:45.794Z,98451.84
2019-02-07T00:04:15.571Z,98448.73
2019-02-07T00:06:45.348Z,98446.36
2019-02-07T00:09:15.216Z,98446.90
2019-02-07T00:11:45.293Z,98440.27
2019-02-07T00:14:16.362Z,98438.16
2019-02-07T00:16:46.264Z,98431.47
2019-02-07T00:19:17.516Z,98432.16
2019-02-07T00:21:48.174Z,98428.59
2019-02-07T00:24:19.544Z,98428.26
2019-02-07T00:26:50.967Z,98429.41
2019-02-07T00:29:20.732Z,98427.80
2019-02-07T00:31:50.572Z,98423.09
2019-02-07T00:34:20.376Z,98419.98
2019-02-07T00:36:50.159Z,98414.06
2019-02-07T00:39:20.335Z,98410.36
2019-02-07T00:41:50.328Z,98411.59
2019-02-07T00:44:20.148Z,98417.77
2019-02-07T00:46:49.928Z,98412.19
2019-02-07T00:49:19.780Z,98412.28
2019-02-07T00:51:49.592Z,98408.44
2019-02-07T00:54:20.320Z,98404.08
2019-02-07T00:56:49.999Z,98403.17
2019-02-07T00:59:19.807Z,98405.59
2019-02-07T01:01:50.781Z,98397.62
2019-02-07T01:04:21.669Z,98394.42
2019-02-07T01:06:51.855Z,98389.81
2019-02-07T01:09:27.332Z,98389.75
2019-02-07T01:11:57.096Z,98387.13
2019-02-07T01:14:27.099Z,98383.79
2019-02-07T01:16:56.738Z,98386.13
2019-02-07T01:19:28.779Z,98386.64
2019-02-07T01:21:58.742Z,98385.09
2019-02-07T01:24:29.707Z,98386.38
2019-02-07T01:27:00.966Z,98384.53
2019-02-07T01:29:30.544Z,98381.70
2019-02-07T01:32:02.069Z,98379.28
2019-02-07T01:34:31.871Z,98371.53
2019-02-07T01:37:01.577Z,98369.07
2019-02-07T01:39:31.412Z,98364.53
2019-02-07T01:42:01.185Z,98370.85
2019-02-07T01:44:31.014Z,98360.78
2019-02-07T01:47:00.803Z,98358.53
2019-02-07T01:49:31.464Z,98361.33
2019-02-07T01:52:01.286Z,98356.48
2019-02-07T01:54:31.077Z,98352.18
2019-02-07T01:57:00.928Z,98347.41
2019-02-07T01:59:30.750Z,98340.64
2019-02-07T02:02:01.028Z,98329.83
2019-02-07T02:04:31.046Z,98329.47
2019-02-07T02:07:01.830Z,98328.94
2019-02-07T02:09:31.639Z,98330.35
2019-02-07T02:12:03.186Z,98325.92
2019-02-07T02:14:34.509Z,98323.77
2019-02-07T02:17:05.961Z,98317.91
2019-02-07T02:19:37.264Z,98311.50
2019-02-07T02:22:07.038Z,98313.19
2019-02-07T02:24:36.950Z,98302.94
2019-02-07T02:27:06.755Z,98306.33
2019-02-07T02:29:37.056Z,98298.27
2019-02-07T02:32:06.872Z,98299.50
2019-02-07T02:34:36.670Z,98291.92
2019-02-07T02:37:06.468Z,98298.97
2019-02-07T02:39:37.751Z,98295.85
2019-02-07T02:42:07.566Z,98298.64
2019-02-07T02:44:38.430Z,98291.95
2019-02-07T02:47:10.703Z,98292.28
2019-02-07T02:49:41.429Z,98281.02
2019-02-07T02:52:12.632Z,98278.46
2019-02-07T02:54:44.075Z,98278.02
2019-02-07T02:57:14.146Z,98273.56
2019-02-07T02:59:45.567Z,98270.91
2019-02-07T03:02:22.885Z,98273.98
2019-02-07T03:05:03.537Z,98272.02
2019-02-07T03:07:50.833Z,98266.44
2019-02-07T03:10:25.182Z,98264.16
2019-02-07T03:12:56.535Z,98257.66
2019-02-07T03:15:27.874Z,98259.71
2019-02-07T03:18:03.834Z,98259.17
2019-02-07T03:20:41.605Z,98250.93
2019-02-07T03:23:13.020Z,98243.16
2019-02-07T03:25:48.680Z,98243.06
2019-02-07T03:28:32.254Z,98234.66
2019-02-07T03:31:09.663Z,98241.78
2019-02-07T03:33:45.164Z,98240.33
2019-02-07T03:36:22.838Z,98240.05
2019-02-07T03:39:05.212Z,98240.73
2019-02-07T03:41:36.790Z,98244.98
2019-02-07T03:44:09.893Z,98239.87
2019-02-07T03:46:41.238Z,98233.83
2019-02-07T03:49:19.539Z,98231.59
2019-02-07T03:52:06.983Z,98231.49
2019-02-07T03:54:55.384Z,98223.63
2019-02-07T03:57:26.733Z,98222.17
2019-02-07T04:00:11.356Z,98228.76
2019-02-07T04:02:47.104Z,98223.41
2019-02-07T04:05:19.761Z,98217.95
2019-02-07T04:08:01.234Z,98213.06
2019-02-07T04:10:38.861Z,98212.52
2019-02-07T04:13:11.902Z,98208.68
2019-02-07T04:15:46.093Z,98211.72
2019-02-07T04:18:19.104Z,98204.22
2019-02-07T04:20:50.453Z,98205.95
2019-02-07T04:23:25.342Z,98208.92
2019-02-07T04:26:00.504Z,98207.52
2019-02-07T04:28:34.564Z,98201.66
2019-02-07T04:31:19.438Z,98202.63
2019-02-07T04:34:07.042Z,98200.94
2019-02-07T04:36:44.326Z,98194.55
2019-02-07T04:39:35.835Z,98198.56
2019-02-07T04:42:15.959Z,98086.41
2019-02-07T04:48:06.572Z,98195.83
2019-02-07T04:50:43.759Z,98188.84
2019-02-07T04:53:28.769Z,98184.95
2019-02-07T04:56:12.769Z,98184.78
2019-02-07T04:58:50.467Z,98184.38
2019-02-07T05:01:25.300Z,98177.92
2019-02-07T05:03:56.659Z,98179.18
2019-02-07T05:06:33.732Z,98168.59
2019-02-07T05:09:11.892Z,98174.72
2019-02-07T05:11:58.928Z,98163.25
2019-02-07T05:14:47.356Z,98154.45
2019-02-07T05:17:20.385Z,98164.43
2019-02-07T05:19:51.786Z,98154.56
2019-02-07T05:22:25.835Z,98155.74
2019-02-07T05:25:06.741Z,98159.07
2019-02-07T05:27:53.443Z,98165.28
2019-02-07T05:30:25.453Z,98160.30
2019-02-07T05:33:08.438Z,98162.62
2019-02-07T05:35:40.206Z,98160.67
2019-02-07T05:38:30.253Z,98160.69
2019-02-07T05:41:07.572Z,98159.55
2019-02-07T05:43:39.841Z,98159.27
2019-02-07T05:46:20.232Z,98161.77
2019-02-07T05:48:55.978Z,98163.31
2019-02-07T05:51:44.028Z,98163.16
2019-02-07T05:54:31.447Z,98164.13
2019-02-07T05:57:14.986Z,98163.65
2019-02-07T05:59:54.716Z,98160.19
2019-02-07T06:02:28.801Z,98163.49
2019-02-07T06:05:16.283Z,98169.13
2019-02-07T06:07:56.894Z,98163.55
2019-02-07T06:10:31.087Z,98162.44
2019-02-07T06:13:18.983Z,98161.67
2019-02-07T06:16:07.452Z,98162.95
2019-02-07T06:18:53.469Z,98160.63
2019-02-07T06:21:30.436Z,98161.23
2019-02-07T06:24:07.728Z,98158.37
2019-02-07T06:26:44.453Z,98162.70
2019-02-07T06:29:18.604Z,98155.23
2019-02-07T06:31:55.587Z,98160.53
2019-02-07T06:34:29.102Z,98156.69
2019-02-07T06:37:15.341Z,98160.02
2019-02-07T06:39:58.835Z,98155.23
2019-02-07T06:42:32.544Z,98155.32
2019-02-07T06:45:06.548Z,98152.28
2019-02-07T06:47:54.127Z,98157.94
2019-02-07T06:50:31.168Z,98156.86
2019-02-07T06:53:16.028Z,98160.22
2019-02-07T06:55:57.001Z,98160.58
2019-02-07T06:58:31.145Z,98154.69
2019-02-07T07:01:10.648Z,98164.25
2019-02-07T07:03:48.243Z,98156.75
2019-02-07T07:06:22.805Z,98158.12
2019-02-07T07:08:55.153Z,98153.86
2019-02-07T07:11:38.533Z,98146.16
2019-02-07T07:14:30.144Z,98148.05
2019-02-07T07:17:02.962Z,98143.05
2019-02-07T07:19:44.625Z,98141.76
2019-02-07T07:22:33.983Z,98148.13
2019-02-07T07:25:08.654Z,98142.77
2019-02-07T07:27:40.079Z,98136.25
2019-02-07T07:30:15.414Z,98138.47
2019-02-07T07:32:46.767Z,98142.08
2019-02-07T07:35:18.185Z,98141.42
2019-02-07T07:38:08.454Z,98144.83
2019-02-07T07:40:43.128Z,98137.03
2019-02-07T07:43:17.599Z,98131.20
2019-02-07T07:46:03.907Z,98130.11
2019-02-07T07:48:45.215Z,98129.39
2019-02-07T07:51:25.511Z,98121.70
2019-02-07T07:54:02.995Z,98124.27
2019-02-07T07:56:34.634Z,98122.09
2019-02-07T07:59:24.544Z,98117.55
2019-02-07T08:01:58.962Z,98114.44
2019-02-07T08:04:39.163Z,98118.74
2019-02-07T08:07:16.587Z,98113.24
2019-02-07T08:09:49.738Z,98109.53
2019-02-07T08:12:36.207Z,98106.55
2019-02-07T08:15:31.424Z,98102.13
2019-02-07T08:18:21.917Z,98105.13
2019-02-07T08:20:53.546Z,98098.69
2019-02-07T08:23:28.062Z,98094.56
2019-02-07T08:26:03.342Z,98093.53
2019-02-07T08:28:43.786Z,98091.14
2019-02-07T08:31:15.164Z,98091.88
2019-02-07T08:33:52.663Z,98091.88
2019-02-07T08:36:32.965Z,98095.47
2019-02-07T08:39:04.386Z,98095.47
2019-02-07T08:41:44.781Z,98082.05
2019-02-07T08:44:31.557Z,98085.06
2019-02-07T08:47:21.087Z,98084.14
2019-02-07T08:50:10.426Z,98082.23
2019-02-07T08:52:57.903Z,98075.58
2019-02-07T08:55:47.446Z,98073.20
2019-02-07T08:58:18.784Z,98079.02
2019-02-07T09:00:52.765Z,98076.99
2019-02-07T09:03:24.119Z,98073.66
2019-02-07T09:06:11.661Z,98067.78
2019-02-07T09:08:58.370Z,98068.38
2019-02-07T09:11:47.709Z,98062.85
2019-02-07T09:14:19.128Z,98061.12
2019-02-07T09:16:53.014Z,98063.75
2019-02-07T09:19:36.643Z,98059.09
2019-02-07T09:22:23.887Z,98057.44
2019-02-07T09:25:01.417Z,98051.86
2019-02-07T09:27:44.588Z,98050.13
2019-02-07T09:30:38.301Z,98054.48
2019-02-07T09:33:09.659Z,98051.50
2019-02-07T09:35:41.160Z,98054.98
2019-02-07T09:38:12.545Z,98050.27
2019-02-07T09:40:43.912Z,98051.98
2019-02-07T09:43:15.455Z,98051.09
2019-02-07T09:45:53.094Z,98050.28
2019-02-07T09:48:27.465Z,98049.85
2019-02-07T09:51:01.583Z,98048.13
2019-02-07T09:53:35.820Z,98042.91
2019-02-07T09:56:23.735Z,98048.55
2019-02-07T09:58:55.167Z,98046.83
2019-02-07T10:01:29.507Z,98042.98
2019-02-07T10:04:00.912Z,98040.84
2019-02-07T10:06:44.557Z,98040.44
2019-02-07T10:09:21.983Z,98039.55
2019-02-07T10:12:09.843Z,98036.52
2019-02-07T10:14:56.656Z,98030.92
2019-02-07T10:17:36.880Z,98031.39
2019-02-07T10:20:10.563Z,98028.37
2019-02-07T10:22:45.039Z,98031.36
2019-02-07T10:25:16.562Z,98027.91
2019-02-07T10:27:47.899Z,98023.17
2019-02-07T10:30:31.265Z,98018.86
2019-02-07T10:33:16.163Z,98014.88
2019-02-07T10:35:59.182Z,98016.21
2019-02-07T10:38:42.689Z,98016.62
2019-02-07T10:41:20.013Z,98001.47
2019-02-07T10:43:51.373Z,98003.22
2019-02-07T10:46:31.743Z,97999.74
2019-02-07T10:49:08.583Z,97998.44
2019-02-07T10:51:45.792Z,97992.80
2019-02-07T10:54:23.109Z,97988.94
2019-02-07T10:57:00.504Z,97985.02
2019-02-07T10:59:40.558Z,97982.41
2019-02-07T11:02:28.087Z,97981.02
2019-02-07T11:05:08.451Z,97980.55
2019-02-07T11:07:56.324Z,97976.27
2019-02-07T11:10:45.416Z,97967.56
2019-02-07T11:13:16.824Z,97964.17
2019-02-07T11:15:48.188Z,97958.13
2019-02-07T11:18:37.510Z,97954.66
2019-02-07T11:21:11.584Z,97950.75
2019-02-07T11:23:57.969Z,97941.28
2019-02-07T11:26:32.606Z,97944.30
2019-02-07T11:29:16.170Z,97933.52
2019-02-07T11:31:47.516Z,97933.09
2019-02-07T11:34:35.721Z,97927.92
2019-02-07T11:37:13.207Z,97927.52
2019-02-07T11:39:47.148Z,97922.72
2019-02-07T11:42:18.539Z,97923.60
2019-02-07T11:44:55.585Z,97917.98
2019-02-07T11:47:35.832Z,97915.84
2019-02-07T11:50:22.267Z,97911.95
2019-02-07T11:52:59.643Z,97906.79
2019-02-07T11:55:49.119Z,97898.14
2019-02-07T11:58:36.573Z,97889.94
2019-02-07T12:01:08.143Z,97889.05
2019-02-07T12:03:54.576Z,97884.73
2019-02-07T12:06:28.651Z,97881.27
2019-02-07T12:09:02.815Z,97882.54
2019-02-07T12:11:34.164Z,97878.22
2019-02-07T12:14:08.888Z,97874.77
2019-02-07T12:16:52.487Z,97875.63
2019-02-07T12:19:27.183Z,97872.20
2019-02-07T12:22:16.106Z,97871.77
2019-02-07T12:24:51.190Z,97871.30
2019-02-07T12:27:25.321Z,97866.58
2019-02-07T12:30:14.207Z,97869.57
2019-02-07T12:32:45.653Z,97862.25
2019-02-07T12:35:18.926Z,97863.95
2019-02-07T12:38:07.214Z,97857.06
2019-02-07T12:40:41.348Z,97860.96
2019-02-07T12:43:15.651Z,97858.38
2019-02-07T12:46:03.269Z,97856.22
2019-02-07T12:48:35.662Z,97855.78
2019-02-07T12:51:20.625Z,97851.46
2019-02-07T12:53:52.234Z,97845.39
2019-02-07T12:56:26.642Z,97851.47
2019-02-07T12:59:00.998Z,97848.84
2019-02-07T13:01:38.433Z,97843.69
2019-02-07T13:04:17.323Z,97844.96
2019-02-07T13:06:51.462Z,97841.50
2019-02-07T13:09:37.887Z,97839.78
2019-02-07T13:12:19.630Z,97833.33
2019-02-07T13:14:56.942Z,97837.63
2019-02-07T13:17:28.330Z,97833.75
2019-02-07T13:20:06.047Z,97831.59
2019-02-07T13:22:55.578Z,97830.28
2019-02-07T13:25:27.710Z,97824.23
2019-02-07T13:28:05.092Z,97825.97
2019-02-07T13:30:42.537Z,97820.77
2019-02-07T13:33:31.289Z,97819.48
2019-02-07T13:36:18.155Z,97826.38
2019-02-07T13:38:55.648Z,97820.34
2019-02-07T13:41:30.087Z,97819.48
2019-02-07T13:44:13.327Z,97817.77
2019-02-07T13:47:03.095Z,97820.34
2019-02-07T13:49:51.381Z,97818.19
2019-02-07T13:52:22.356Z,97814.73
2019-02-07T13:55:10.994Z,97819.45
2019-02-07T13:57:51.626Z,97812.98
2019-02-07T14:00:29.402Z,97812.13
2019-02-07T14:03:16.828Z,97809.11
2019-02-07T14:05:48.213Z,97808.24
2019-02-07T14:08:20.006Z,97805.22
2019-02-07T14:11:09.666Z,97804.77
2019-02-07T14:13:47.154Z,97809.53
2019-02-07T14:16:21.464Z,97804.75
2019-02-07T14:18:55.737Z,97801.74
2019-02-07T14:21:27.981Z,97810.79
2019-02-07T14:23:59.315Z,97802.14
2019-02-07T14:26:47.799Z,97798.26
2019-02-07T14:29:19.150Z,97799.13
2019-02-07T14:31:53.144Z,97798.27
2019-02-07T14:34:33.339Z,97797.84
2019-02-07T14:37:04.989Z,97799.11
2019-02-07T14:39:39.148Z,97800.41
2019-02-07T14:42:13.237Z,97795.21
2019-02-07T14:44:57.837Z,97795.19
2019-02-07T14:47:27.656Z,97791.31
2019-02-07T14:49:57.467Z,97794.33
2019-02-07T14:52:27.258Z,97793.92
2019-02-07T14:54:57.594Z,97788.77
2019-02-07T14:57:27.799Z,97785.30
2019-02-07T14:59:57.961Z,97783.63
2019-02-07T15:02:27.575Z,97780.15
2019-02-07T15:04:57.413Z,97780.57
2019-02-07T15:07:28.208Z,97775.84
2019-02-07T15:09:58.907Z,97781.02
2019-02-07T15:12:28.720Z,97785.33
2019-02-07T15:14:58.692Z,97784.88
2019-02-07T15:17:29.400Z,97785.72
2019-02-07T15:19:59.698Z,97788.28
2019-02-07T15:22:29.505Z,97786.97
2019-02-07T15:24:59.273Z,97690.98
2019-02-07T15:27:29.043Z,97784.74
2019-02-07T15:29:58.901Z,97777.82
2019-02-07T15:32:28.690Z,97779.09
2019-02-07T15:34:58.452Z,97782.08
2019-02-07T15:37:28.142Z,97779.91
2019-02-07T15:39:57.948Z,97785.48
2019-02-07T15:42:27.672Z,97782.86
2019-02-07T15:44:57.497Z,97792.31
2019-02-07T15:47:27.262Z,97782.80
2019-02-07T15:49:57.053Z,97789.66
2019-02-07T15:52:26.879Z,97779.27
2019-02-07T15:54:56.687Z,97780.53
2019-02-07T15:57:26.513Z,97777.04
2019-02-07T15:59:56.515Z,97770.53
2019-02-07T16:02:26.437Z,97779.06
2019-02-07T16:04:56.620Z,97768.94
2019-02-07T16:07:27.387Z,97771.89
2019-02-07T16:09:58.934Z,97769.27
2019-02-07T16:12:28.999Z,97777.53
2019-02-07T16:14:58.797Z,97771.06
2019-02-07T16:17:28.640Z,97777.50
2019-02-07T16:19:58.261Z,97783.45
2019-02-07T16:22:28.068Z,97783.78
2019-02-07T16:24:57.931Z,97778.95
2019-02-07T16:27:27.743Z,97783.75
2019-02-07T16:29:57.522Z,97776.79
2019-02-07T16:32:27.327Z,97783.50
2019-02-07T16:34:57.098Z,97785.91
2019-02-07T16:37:26.933Z,97783.17
2019-02-07T16:39:57.302Z,97786.45
2019-02-07T16:42:27.190Z,97779.84
2019-02-07T16:44:56.946Z,97784.08
2019-02-07T16:47:26.611Z,97783.14
2019-02-07T16:49:56.438Z,97779.62
2019-02-07T16:52:26.147Z,97781.17
2019-02-07T16:54:56.197Z,97787.55
2019-02-07T16:57:26.058Z,97787.02
2019-02-07T16:59:55.845Z,97783.03
2019-02-07T17:02:25.706Z,97785.59
2019-02-07T17:04:55.517Z,97791.59
2019-02-07T17:07:25.300Z,97784.66
2019-02-07T17:09:55.528Z,97787.17
2019-02-07T17:12:25.354Z,97787.95
2019-02-07T17:14:55.188Z,97793.52
2019-02-07T17:17:24.886Z,97798.61
2019-02-07T17:19:54.694Z,97795.14
2019-02-07T17:22:24.465Z,97798.08
2019-02-07T17:24:54.348Z,97793.29
2019-02-07T17:27:24.144Z,97804.02
2019-02-07T17:29:54.060Z,97799.92
2019-02-07T17:32:23.926Z,97799.20
2019-02-07T17:34:53.681Z,97801.42
2019-02-07T17:37:23.603Z,97802.54
2019-02-07T17:39:53.412Z,97811.67
2019-02-07T17:42:23.226Z,97802.88
2019-02-07T17:44:53.217Z,97811.88
2019-02-07T17:47:22.847Z,97811.88
2019-02-07T17:49:52.663Z,97813.42
2019-02-07T17:52:22.848Z,97813.42
2019-02-07T17:54:55.852Z,97816.91
2019-02-07T17:57:25.603Z,97810.83
2019-02-07T17:59:55.413Z,97811.41
2019-02-07T18:02:25.606Z,97810.39
2019-02-07T18:04:55.365Z,97810.39
2019-02-07T18:07:25.323Z,97816.39
2019-02-07T18:09:55.107Z,97819.22
2019-02-07T18:12:24.979Z,97819.22
2019-02-07T18:14:55.036Z,97813.45
2019-02-07T18:17:24.843Z,97816.55
2019-02-07T18:19:54.645Z,97819.55
2019-02-07T18:22:24.477Z,97817.38
2019-02-07T18:24:55.196Z,97817.38
2019-02-07T18:27:24.937Z,97817.30
2019-02-07T18:29:54.720Z,97816.77
2019-02-07T18:32:24.508Z,97811.89
2019-02-07T18:34:54.276Z,97813.45
2019-02-07T18:37:24.151Z,97815.36
2019-02-07T18:39:54.026Z,97809.30
2019-02-07T18:42:23.907Z,97809.30
2019-02-07T18:44:54.492Z,97811.63
2019-02-07T18:47:24.306Z,97806.93
2019-02-07T18:49:58.625Z,97806.91
2019-02-07T18:52:32.229Z,97803.47
2019-02-07T18:55:09.307Z,97803.47
2019-02-07T18:57:39.764Z,97816.45
2019-02-07T19:00:25.107Z,97805.64
2019-02-07T19:02:54.864Z,97806.91
2019-02-07T19:05:25.679Z,97808.20
2019-02-07T19:07:57.716Z,97811.01
2019-02-07T19:10:31.661Z,97816.37
2019-02-07T19:13:02.032Z,97803.52
2019-02-07T19:15:45.630Z,97809.60
2019-02-07T19:18:15.479Z,97810.03
2019-02-07T19:20:45.231Z,97813.16
2019-02-07T19:23:14.964Z,97815.84
2019-02-07T19:25:46.131Z,97806.50
2019-02-07T19:28:15.887Z,97812.69
2019-02-07T19:30:45.784Z,97807.63
2019-02-07T19:33:15.531Z,97801.63
2019-02-07T19:35:45.409Z,97801.63
2019-02-07T19:38:15.282Z,97811.36
2019-02-07T19:40:45.035Z,97811.36
2019-02-07T19:43:14.773Z,97812.05
2019-02-07T19:45:44.578Z,97812.05
2019-02-07T19:48:14.343Z,97810.86
2019-02-07T19:50:44.178Z,97810.86
2019-02-07T19:53:13.935Z,97810.69
2019-02-07T19:55:44.096Z,97810.28
2019-02-07T19:58:13.863Z,97813.46
2019-02-07T20:00:43.853Z,97813.46
2019-02-07T20:03:13.644Z,97818.16
2019-02-07T20:05:43.400Z,97813.94
2019-02-07T20:08:13.980Z,97817.59
2019-02-07T20:10:43.784Z,97823.44
2019-02-07T20:13:13.529Z,97823.44
2019-02-07T20:15:44.097Z,97830.98
2019-02-07T20:18:13.900Z,97823.01
2019-02-07T20:20:43.644Z,97815.41
2019-02-07T20:23:13.402Z,97815.41
2019-02-07T20:25:44.181Z,97822.22
2019-02-07T20:28:13.938Z,97822.22
2019-02-07T20:30:45.314Z,97826.20
2019-02-07T20:33:15.087Z,97826.20
2019-02-07T20:35:45.314Z,97827.59
2019-02-07T20:38:15.214Z,97823.64
2019-02-07T20:40:45.369Z,97824.47
2019-02-07T20:43:15.275Z,97828.02
2019-02-07T20:45:45.078Z,97830.59
2019-02-07T20:48:14.850Z,97827.91
2019-02-07T20:50:46.049Z,97829.12
2019-02-07T20:53:17.427Z,97834.77
2019-02-07T20:55:47.479Z,97832.66
2019-02-07T20:58:17.394Z,97833.92
2019-02-07T21:00:47.272Z,97837.28
2019-02-07T21:03:16.963Z,97558.58
2019-02-07T21:05:46.771Z,97837.78
2019-02-07T21:08:16.642Z,97834.22
2019-02-07T21:10:46.441Z,97841.98
2019-02-07T21:13:16.292Z,97843.77
2019-02-07T21:15:46.129Z,97851.97
2019-02-07T21:18:15.951Z,97850.25
2019-02-07T21:20:46.626Z,97846.95
2019-02-07T21:23:16.425Z,97846.95
2019-02-07T21:25:50.994Z,97857.06
2019-02-07T21:28:20.834Z,97857.06
2019-02-07T21:30:50.885Z,97861.02
2019-02-07T21:33:20.824Z,97864.70
2019-02-07T21:35:50.714Z,97864.70
2019-02-07T21:38:20.552Z,97861.41
2019-02-07T21:40:52.988Z,97862.59
2019-02-07T21:43:23.759Z,97861.54
2019-02-07T21:45:53.534Z,97859.81
2019-02-07T21:48:23.431Z,97854.69
2019-02-07T21:50:53.242Z,97854.47
2019-02-07T21:53:23.007Z,97862.82
2019-02-07T21:55:52.826Z,97864.05
2019-02-07T21:58:22.521Z,97865.34
2019-02-07T22:00:52.322Z,97869.63
2019-02-07T22:03:23.052Z,97866.31
2019-02-07T22:05:52.782Z,97870.06
2019-02-07T22:08:22.748Z,97865.31
2019-02-07T22:10:53.020Z,97866.34
2019-02-07T22:13:25.815Z,97871.27
2019-02-07T22:15:55.787Z,97870.25
2019-02-07T22:18:26.241Z,97865.84
2019-02-07T22:20:56.016Z,97872.38
2019-02-07T22:23:26.067Z,97873.84
2019-02-07T22:25:55.868Z,97879.80
2019-02-07T22:28:25.647Z,97878.50
2019-02-07T22:30:55.441Z,97884.49
2019-02-07T22:33:25.215Z,97886.49
2019-02-07T22:35:55.017Z,97883.48
2019-02-07T22:38:24.808Z,97886.62
2019-02-07T22:40:58.734Z,97884.78
2019-02-07T22:43:31.725Z,97880.48
2019-02-07T22:46:02.266Z,97873.48
2019-02-07T22:48:32.045Z,97872.09
2019-02-07T22:51:02.090Z,97871.52
2019-02-07T22:53:33.414Z,97550.77
2019-02-07T22:56:03.226Z,97875.39
2019-02-07T22:58:33.030Z,97872.38
2019-02-07T23:03:45.333Z,97869.76
2019-02-07T23:06:15.082Z,97876.05
2019-02-07T23:08:44.849Z,97872.91
2019-02-07T23:11:27.013Z,97873.81
2019-02-07T23:13:57.665Z,97873.38
2019-02-07T23:16:28.278Z,97869.02
2019-02-07T23:18:58.131Z,97866.34
2019-02-07T23:21:27.895Z,97868.50
2019-02-07T23:23:57.698Z,97871.91
2019-02-07T23:26:28.409Z,97872.67
2019-02-07T23:28:58.259Z,97875.21
2019-02-07T23:31:28.296Z,97558.20
2019-02-07T23:33:58.049Z,97872.62
2019-02-07T23:36:27.874Z,97879.05
2019-02-07T23:38:57.634Z,97874.80
2019-02-07T23:41:27.487Z,97878.23
2019-02-07T23:43:57.598Z,97878.25
2019-02-07T23:46:27.634Z,97875.32
2019-02-07T23:48:57.436Z,97880.47
2019-02-07T23:51:27.123Z,97880.85
2019-02-07T23:53:56.751Z,97875.32
2019-02-07T23:56:27.615Z,97864.84
2019-02-07T23:58:57.386Z,97869.44
